createdAt,value
2022-11-13T00:01:25.798Z,6.97
2022-11-13T00:04:11.272Z,6.90
2022-11-13T00:06:59.331Z,6.93
2022-11-13T00:09:45.094Z,7.13
2022-11-13T00:12:30.479Z,7.50
2022-11-13T00:15:16.236Z,7.90
2022-11-13T00:18:03.260Z,7.47
2022-11-13T00:20:48.426Z,6.40
2022-11-13T00:23:35.674Z,6.57
2022-11-13T00:26:24.738Z,6.00
2022-11-13T00:29:10.115Z,6.13
2022-11-13T00:31:55.467Z,5.83
2022-11-13T00:34:47.551Z,6.53
2022-11-13T00:37:34.145Z,5.90
2022-11-13T00:40:19.491Z,5.60
2022-11-13T00:43:04.787Z,5.47
2022-11-13T00:45:50.183Z,6.03
2022-11-13T00:48:36.495Z,6.20
2022-11-13T00:51:22.333Z,6.27
2022-11-13T00:54:07.690Z,5.33
2022-11-13T00:56:53.236Z,7.00
2022-11-13T00:59:38.552Z,5.73
2022-11-13T01:02:23.877Z,5.87
2022-11-13T01:05:09.266Z,6.30
2022-11-13T01:07:54.980Z,6.10
2022-11-13T01:10:47.596Z,6.00
2022-11-13T01:13:38.790Z,6.07
2022-11-13T01:16:27.297Z,7.20
2022-11-13T01:19:12.599Z,6.20
2022-11-13T01:21:57.868Z,6.87
2022-11-13T01:24:43.328Z,6.37
2022-11-13T01:27:28.549Z,5.67
2022-11-13T01:30:13.847Z,7.17
2022-11-13T01:32:58.999Z,6.73
2022-11-13T01:35:44.465Z,7.60
2022-11-13T01:38:34.313Z,8.53
2022-11-13T01:41:34.067Z,8.40
2022-11-13T01:44:20.751Z,7.80
2022-11-13T01:47:06.358Z,9.60
2022-11-13T01:49:56.549Z,10.93
2022-11-13T01:52:42.883Z,9.97
2022-11-13T01:55:28.924Z,12.67
2022-11-13T01:58:14.853Z,11.77
2022-11-13T02:01:00.571Z,13.80
2022-11-13T02:03:45.763Z,13.73
2022-11-13T02:06:44.307Z,14.60
2022-11-13T02:09:36.244Z,14.57
2022-11-13T02:12:35.110Z,14.70
2022-11-13T02:15:24.147Z,15.07
2022-11-13T02:18:11.132Z,15.40
2022-11-13T02:21:38.067Z,16.30
2022-11-13T02:24:32.737Z,16.33
2022-11-13T02:27:35.988Z,16.20
2022-11-13T02:30:32.080Z,15.43
2022-11-13T02:33:31.781Z,16.87
2022-11-13T02:36:18.556Z,17.90
2022-11-13T02:39:09.402Z,17.37
2022-11-13T02:41:54.908Z,17.63
2022-11-13T02:44:40.171Z,17.27
2022-11-13T02:47:25.325Z,17.57
2022-11-13T02:50:12.049Z,17.87
2022-11-13T02:52:57.460Z,19.20
2022-11-13T02:55:42.794Z,18.10
2022-11-13T02:58:28.402Z,17.20
2022-11-13T03:01:14.589Z,19.37
2022-11-13T03:04:01.081Z,19.23
2022-11-13T03:06:46.763Z,17.50
2022-11-13T03:09:32.044Z,17.30
2022-11-13T03:12:17.371Z,19.00
2022-11-13T03:15:02.783Z,17.90
2022-11-13T03:17:48.121Z,17.37
2022-11-13T03:20:36.342Z,17.83
2022-11-13T03:23:21.462Z,20.70
2022-11-13T03:26:10.507Z,17.77
2022-11-13T03:28:56.484Z,18.27
2022-11-13T03:31:41.777Z,17.87
2022-11-13T03:34:27.105Z,18.47
2022-11-13T03:37:12.235Z,17.10
2022-11-13T03:39:57.502Z,18.17
2022-11-13T03:42:42.736Z,18.23
2022-11-13T03:45:28.111Z,17.90
2022-11-13T03:48:15.903Z,17.60
2022-11-13T03:51:01.519Z,18.17
2022-11-13T03:53:46.828Z,16.30
2022-11-13T03:56:32.079Z,16.70
2022-11-13T03:59:17.379Z,15.00
2022-11-13T04:02:02.784Z,16.03
2022-11-13T04:04:48.075Z,14.13
2022-11-13T04:07:33.414Z,14.17
2022-11-13T04:10:18.791Z,15.67
2022-11-13T04:13:04.146Z,15.23
2022-11-13T04:15:49.528Z,14.63
2022-11-13T04:18:34.659Z,14.00
2022-11-13T04:21:20.124Z,13.87
2022-11-13T04:24:05.554Z,14.80
2022-11-13T04:26:50.908Z,15.23
2022-11-13T04:29:36.215Z,12.70
2022-11-13T04:32:21.548Z,11.07
2022-11-13T04:35:07.564Z,11.93
2022-11-13T04:37:53.877Z,12.63
2022-11-13T04:40:40.677Z,11.57
2022-11-13T04:43:26.293Z,11.80
2022-11-13T04:46:11.547Z,11.97
2022-11-13T04:48:56.900Z,12.13
2022-11-13T04:51:42.237Z,10.80
2022-11-13T04:54:28.869Z,10.93
2022-11-13T04:57:14.483Z,12.03
2022-11-13T04:59:59.704Z,10.43
2022-11-13T05:02:45.311Z,11.47
2022-11-13T05:05:30.532Z,11.13
2022-11-13T05:08:15.848Z,10.90
2022-11-13T05:11:01.738Z,11.50
2022-11-13T05:13:47.002Z,12.17
2022-11-13T05:16:32.485Z,12.30
2022-11-13T05:19:18.102Z,12.27
2022-11-13T05:22:04.706Z,11.97
2022-11-13T05:24:50.090Z,12.50
2022-11-13T05:27:35.351Z,12.70
2022-11-13T05:30:20.630Z,12.57
2022-11-13T05:33:05.842Z,12.90
2022-11-13T05:35:51.052Z,13.47
2022-11-13T05:38:36.882Z,12.97
2022-11-13T05:41:23.019Z,13.73
2022-11-13T05:44:08.302Z,12.87
2022-11-13T05:46:53.506Z,12.60
2022-11-13T05:49:38.731Z,11.43
2022-11-13T05:52:23.999Z,11.53
2022-11-13T05:55:09.528Z,11.70
2022-11-13T05:57:54.949Z,11.40
2022-11-13T06:00:40.235Z,11.20
2022-11-13T06:03:25.584Z,11.60
2022-11-13T06:06:17.287Z,11.03
2022-11-13T06:09:05.806Z,9.97
2022-11-13T06:11:51.291Z,9.57
2022-11-13T06:14:36.654Z,10.10
2022-11-13T06:17:21.882Z,11.10
2022-11-13T06:20:07.939Z,11.17
2022-11-13T06:22:53.422Z,11.67
2022-11-13T06:25:38.680Z,11.10
2022-11-13T06:28:24.006Z,11.67
2022-11-13T06:31:16.091Z,12.90
2022-11-13T06:34:02.221Z,12.63
2022-11-13T06:36:47.514Z,11.97
2022-11-13T06:39:32.829Z,14.40
2022-11-13T06:42:17.986Z,18.60
2022-11-13T06:45:03.753Z,16.93
2022-11-13T06:47:49.108Z,18.60
2022-11-13T06:50:34.382Z,16.37
2022-11-13T06:53:19.790Z,15.40
2022-11-13T06:56:06.700Z,14.73
2022-11-13T06:58:52.467Z,16.10
2022-11-13T07:01:37.995Z,17.87
2022-11-13T07:04:23.895Z,19.80
2022-11-13T07:07:09.251Z,19.53
2022-11-13T07:09:54.470Z,19.10
2022-11-13T07:12:39.753Z,20.70
2022-11-13T07:15:25.154Z,21.10
2022-11-13T07:18:10.486Z,21.10
2022-11-13T07:20:55.820Z,20.87
2022-11-13T07:23:43.316Z,23.30
2022-11-13T07:26:29.184Z,21.93
2022-11-13T07:29:15.707Z,21.13
2022-11-13T07:32:00.958Z,22.30
2022-11-13T07:34:46.392Z,24.13
2022-11-13T07:37:31.662Z,23.00
2022-11-13T07:40:17.194Z,20.93
2022-11-13T07:43:03.620Z,20.57
2022-11-13T07:45:54.467Z,20.97
2022-11-13T07:48:40.234Z,22.00
2022-11-13T07:51:25.836Z,22.73
2022-11-13T07:54:11.100Z,22.63
2022-11-13T07:56:56.525Z,23.97
2022-11-13T07:59:41.817Z,24.40
2022-11-13T08:02:27.156Z,23.17
2022-11-13T08:05:12.543Z,21.47
2022-11-13T08:07:57.968Z,25.20
2022-11-13T08:10:43.309Z,24.90
2022-11-13T08:13:28.535Z,24.60
2022-11-13T08:16:13.903Z,25.07
2022-11-13T08:18:59.242Z,24.20
2022-11-13T08:21:44.470Z,24.60
2022-11-13T08:24:29.962Z,24.37
2022-11-13T08:27:15.249Z,25.03
2022-11-13T08:30:01.216Z,23.80
2022-11-13T08:32:48.043Z,23.80
2022-11-13T08:35:33.531Z,25.30
2022-11-13T08:38:18.932Z,24.03
2022-11-13T08:41:09.404Z,22.60
2022-11-13T08:43:55.578Z,22.30
2022-11-13T08:46:40.999Z,24.17
2022-11-13T08:49:26.259Z,23.77
2022-11-13T08:52:11.607Z,24.00
2022-11-13T08:54:56.846Z,24.67
2022-11-13T08:57:42.276Z,24.43
2022-11-13T09:00:29.530Z,22.70
2022-11-13T09:03:15.196Z,23.47
2022-11-13T09:06:00.883Z,20.80
2022-11-13T09:08:46.273Z,20.37
2022-11-13T09:11:31.576Z,22.90
2022-11-13T09:14:16.934Z,18.10
2022-11-13T09:17:02.272Z,20.00
2022-11-13T09:19:47.825Z,16.90
2022-11-13T09:22:34.733Z,18.67
2022-11-13T09:25:19.883Z,17.80
2022-11-13T09:28:06.610Z,16.97
2022-11-13T09:30:51.982Z,15.30
2022-11-13T09:33:37.409Z,14.90
2022-11-13T09:36:22.892Z,14.70
2022-11-13T09:39:08.388Z,11.13
2022-11-13T09:41:59.730Z,7.90
2022-11-13T09:44:57.961Z,5.23
2022-11-13T09:47:45.787Z,4.30
2022-11-13T09:50:32.506Z,4.67
2022-11-13T09:53:18.311Z,5.20
2022-11-13T09:56:27.586Z,4.43
2022-11-13T09:59:45.459Z,2.77
2022-11-13T10:03:08.966Z,2.30
2022-11-13T10:06:14.526Z,2.60
2022-11-13T10:09:36.942Z,2.00
2022-11-13T10:12:22.411Z,2.87
2022-11-13T10:15:10.285Z,3.60
2022-11-13T10:18:34.861Z,3.50
2022-11-13T10:21:43.956Z,3.00
2022-11-13T10:24:42.965Z,3.73
2022-11-13T10:27:28.317Z,3.40
2022-11-13T10:30:18.985Z,3.50
2022-11-13T10:33:08.258Z,4.20
2022-11-13T10:36:31.113Z,3.80
2022-11-13T10:39:16.767Z,3.50
2022-11-13T10:42:02.271Z,3.30
2022-11-13T10:44:59.411Z,3.80
2022-11-13T10:48:04.287Z,3.40
2022-11-13T10:51:02.858Z,3.47
2022-11-13T10:53:48.641Z,3.33
2022-11-13T10:56:35.866Z,4.10
2022-11-13T10:59:21.184Z,4.50
2022-11-13T11:02:17.201Z,4.43
2022-11-13T11:05:20.163Z,4.00
2022-11-13T11:08:10.368Z,4.13
2022-11-13T11:11:21.081Z,4.37
2022-11-13T11:14:53.684Z,5.23
2022-11-13T11:17:59.143Z,5.13
2022-11-13T11:20:56.690Z,4.63
2022-11-13T11:23:56.799Z,4.40
2022-11-13T11:26:49.482Z,3.63
2022-11-13T11:29:58.907Z,3.90
2022-11-13T11:32:53.363Z,3.20
2022-11-13T11:35:54.031Z,2.20
2022-11-13T11:39:06.524Z,2.20
2022-11-13T11:42:21.372Z,2.87
2022-11-13T11:45:27.607Z,2.10
2022-11-13T11:48:26.178Z,1.90
2022-11-13T11:51:31.844Z,2.10
2022-11-13T11:55:01.695Z,1.80
2022-11-13T11:58:28.733Z,1.80
2022-11-13T12:01:37.091Z,1.60
2022-11-13T12:04:45.369Z,2.00
2022-11-13T12:08:03.129Z,1.73
2022-11-13T12:11:22.591Z,2.30
2022-11-13T12:14:31.618Z,2.30
2022-11-13T12:17:39.690Z,2.03
2022-11-13T12:21:07.048Z,1.90
2022-11-13T12:24:14.808Z,2.93
2022-11-13T12:27:22.423Z,2.60
2022-11-13T12:30:21.917Z,2.70
2022-11-13T12:33:33.313Z,2.90
2022-11-13T12:36:20.603Z,3.13
2022-11-13T12:39:15.038Z,3.10
2022-11-13T12:42:30.629Z,3.67
2022-11-13T12:45:44.679Z,3.90
2022-11-13T12:48:43.171Z,3.97
2022-11-13T12:51:40.208Z,3.50
2022-11-13T12:54:32.431Z,3.70
2022-11-13T12:57:25.841Z,3.80
2022-11-13T13:00:30.404Z,4.77
2022-11-13T13:03:40.674Z,4.40
2022-11-13T13:06:50.831Z,4.70
2022-11-13T13:09:46.843Z,4.20
2022-11-13T13:13:01.571Z,4.00
2022-11-13T13:16:02.737Z,4.50
2022-11-13T13:18:48.711Z,4.63
2022-11-13T13:21:43.949Z,4.90
2022-11-13T13:24:36.568Z,5.67
2022-11-13T13:27:28.411Z,6.13
2022-11-13T13:30:21.721Z,7.83
2022-11-13T13:33:39.965Z,5.90
2022-11-13T13:36:51.461Z,6.80
2022-11-13T13:40:38.752Z,6.90
2022-11-13T13:44:15.332Z,8.70
2022-11-13T13:47:00.709Z,8.67
2022-11-13T13:49:46.359Z,8.40
2022-11-13T13:52:35.091Z,8.20
2022-11-13T13:55:37.043Z,8.20
2022-11-13T13:58:31.224Z,6.87
2022-11-13T14:01:31.741Z,6.50
2022-11-13T14:04:23.195Z,6.60
2022-11-13T14:07:24.018Z,6.77
2022-11-13T14:10:13.058Z,6.20
2022-11-13T14:12:58.344Z,6.60
2022-11-13T14:15:43.683Z,6.17
2022-11-13T14:18:29.521Z,5.77
2022-11-13T14:21:21.996Z,5.27
2022-11-13T14:24:17.095Z,4.47
2022-11-13T14:27:09.261Z,5.53
2022-11-13T14:29:59.998Z,4.57
2022-11-13T14:32:47.411Z,5.50
2022-11-13T14:35:32.968Z,5.10
2022-11-13T14:38:25.766Z,5.67
2022-11-13T14:41:24.600Z,5.20
2022-11-13T14:44:13.106Z,6.00
2022-11-13T14:47:19.280Z,6.90
2022-11-13T14:50:24.132Z,8.40
2022-11-13T14:53:11.127Z,8.60
2022-11-13T14:56:09.056Z,8.90
2022-11-13T14:58:54.599Z,9.63
2022-11-13T15:01:40.232Z,9.70
2022-11-13T15:04:26.188Z,11.80
2022-11-13T15:07:30.783Z,11.20
2022-11-13T15:10:20.703Z,12.97
2022-11-13T15:13:18.118Z,12.20
2022-11-13T15:16:03.984Z,13.40
2022-11-13T15:18:53.435Z,11.17
2022-11-13T15:21:39.801Z,11.90
2022-11-13T15:24:25.006Z,10.50
2022-11-13T15:27:17.371Z,13.70
2022-11-13T15:30:03.445Z,9.57
2022-11-13T15:32:53.722Z,9.00
2022-11-13T15:35:39.003Z,10.10
2022-11-13T15:38:24.400Z,9.50
2022-11-13T15:41:19.378Z,10.90
2022-11-13T15:44:15.004Z,11.60
2022-11-13T15:47:00.623Z,12.70
2022-11-13T15:49:56.765Z,12.67
2022-11-13T15:52:53.189Z,10.80
2022-11-13T15:55:40.972Z,12.23
2022-11-13T15:58:30.488Z,12.30
2022-11-13T16:01:19.554Z,13.40
2022-11-13T16:04:05.923Z,11.50
2022-11-13T16:06:51.180Z,11.00
2022-11-13T16:09:37.035Z,10.43
2022-11-13T16:12:22.279Z,12.97
2022-11-13T16:15:08.562Z,11.93
2022-11-13T16:17:56.877Z,11.10
2022-11-13T16:20:42.199Z,11.77
2022-11-13T16:23:27.757Z,11.07
2022-11-13T16:26:19.298Z,9.90
2022-11-13T16:29:19.368Z,9.37
2022-11-13T16:32:05.179Z,8.73
2022-11-13T16:34:50.524Z,8.90
2022-11-13T16:37:35.906Z,9.30
2022-11-13T16:40:26.027Z,9.60
2022-11-13T16:43:12.908Z,9.87
2022-11-13T16:46:00.323Z,10.73
2022-11-13T16:48:45.674Z,10.90
2022-11-13T16:51:31.092Z,10.67
2022-11-13T16:54:16.320Z,11.47
2022-11-13T16:57:02.249Z,12.00
2022-11-13T16:59:47.426Z,10.60
2022-11-13T17:02:32.619Z,11.10
2022-11-13T17:05:19.347Z,12.30
2022-11-13T17:08:06.230Z,14.00
2022-11-13T17:10:59.501Z,11.97
2022-11-13T17:13:50.821Z,11.57
2022-11-13T17:16:36.371Z,12.50
2022-11-13T17:19:21.794Z,13.47
2022-11-13T17:22:07.554Z,11.80
2022-11-13T17:24:53.134Z,11.83
2022-11-13T17:27:38.420Z,12.43
2022-11-13T17:30:23.815Z,12.73
2022-11-13T17:33:09.282Z,13.20
2022-11-13T17:35:56.276Z,13.57
2022-11-13T17:38:41.873Z,13.87
2022-11-13T17:41:27.043Z,14.30
2022-11-13T17:44:12.344Z,15.33
2022-11-13T17:46:57.636Z,15.60
2022-11-13T17:49:42.948Z,15.97
2022-11-13T17:52:28.235Z,15.47
2022-11-13T17:55:14.047Z,14.23
2022-11-13T17:58:01.186Z,14.60
2022-11-13T18:00:46.753Z,12.33
2022-11-13T18:03:32.262Z,12.30
2022-11-13T18:06:20.109Z,12.90
2022-11-13T18:09:06.307Z,12.87
2022-11-13T18:11:51.620Z,13.27
2022-11-13T18:14:36.968Z,13.27
2022-11-13T18:17:23.442Z,12.43
2022-11-13T18:20:09.777Z,12.97
2022-11-13T18:22:56.129Z,13.50
2022-11-13T18:25:41.350Z,13.00
2022-11-13T18:28:26.805Z,13.47
2022-11-13T18:31:15.955Z,13.37
2022-11-13T18:34:04.123Z,14.27
2022-11-13T18:36:49.910Z,14.47
2022-11-13T18:39:35.494Z,14.20
2022-11-13T18:42:20.748Z,15.07
2022-11-13T18:45:07.091Z,15.30
2022-11-13T18:47:52.557Z,14.80
2022-11-13T18:50:37.910Z,17.23
2022-11-13T18:53:23.429Z,17.77
2022-11-13T18:56:13.574Z,17.03
2022-11-13T18:59:00.053Z,18.07
2022-11-13T19:01:45.575Z,18.80
2022-11-13T19:04:31.339Z,18.37
2022-11-13T19:07:16.956Z,17.77
2022-11-13T19:10:02.932Z,16.93
2022-11-13T19:12:48.551Z,16.90
2022-11-13T19:15:39.017Z,16.50
2022-11-13T19:18:24.668Z,16.90
2022-11-13T19:21:16.340Z,18.20
2022-11-13T19:24:02.589Z,16.60
2022-11-13T19:26:48.173Z,15.17
2022-11-13T19:29:33.565Z,17.40
2022-11-13T19:32:18.886Z,16.07
2022-11-13T19:35:04.655Z,15.63
2022-11-13T19:37:57.768Z,17.10
2022-11-13T19:40:51.069Z,17.50
2022-11-13T19:43:39.494Z,15.70
2022-11-13T19:46:25.276Z,16.50
2022-11-13T19:49:10.873Z,14.50
2022-11-13T19:51:56.303Z,13.63
2022-11-13T19:54:42.090Z,13.63
2022-11-13T19:57:27.485Z,15.40
2022-11-13T20:00:13.326Z,14.50
2022-11-13T20:02:58.492Z,14.63
2022-11-13T20:05:44.113Z,15.70
2022-11-13T20:08:30.099Z,13.43
2022-11-13T20:11:15.840Z,14.77
2022-11-13T20:14:01.113Z,14.90
2022-11-13T20:16:46.413Z,14.80
2022-11-13T20:19:31.677Z,14.30
2022-11-13T20:22:17.000Z,14.37
2022-11-13T20:25:02.449Z,13.27
2022-11-13T20:27:47.806Z,14.00
2022-11-13T20:30:33.775Z,13.60
2022-11-13T20:33:22.620Z,14.87
2022-11-13T20:36:09.506Z,15.10
2022-11-13T20:38:57.027Z,13.40
2022-11-13T20:41:42.384Z,13.90
2022-11-13T20:44:27.569Z,14.60
2022-11-13T20:47:12.991Z,14.40
2022-11-13T20:49:58.251Z,14.57
2022-11-13T20:52:44.436Z,12.80
2022-11-13T20:55:30.659Z,13.80
2022-11-13T20:58:16.071Z,14.73
2022-11-13T21:01:07.794Z,13.30
2022-11-13T21:03:53.419Z,13.23
2022-11-13T21:06:38.741Z,13.50
2022-11-13T21:09:24.506Z,14.60
2022-11-13T21:12:09.842Z,14.10
2022-11-13T21:14:55.183Z,16.63
2022-11-13T21:17:40.552Z,14.73
2022-11-13T21:20:25.715Z,14.87
2022-11-13T21:23:10.988Z,15.47
2022-11-13T21:26:01.466Z,14.57
2022-11-13T21:28:46.879Z,15.23
2022-11-13T21:31:32.159Z,17.30
2022-11-13T21:34:17.598Z,15.87
2022-11-13T21:37:02.891Z,14.60
2022-11-13T21:39:48.394Z,16.87
2022-11-13T21:42:33.755Z,16.00
2022-11-13T21:45:19.118Z,15.90
2022-11-13T21:48:04.435Z,15.37
2022-11-13T21:50:50.104Z,16.63
2022-11-13T21:53:35.911Z,15.30
2022-11-13T21:56:21.432Z,16.17
2022-11-13T21:59:07.058Z,15.20
2022-11-13T22:01:52.631Z,18.07
2022-11-13T22:04:37.864Z,18.00
2022-11-13T22:07:23.385Z,15.80
2022-11-13T22:10:08.839Z,19.10
2022-11-13T22:12:54.659Z,17.17
2022-11-13T22:15:40.539Z,16.40
2022-11-13T22:18:26.165Z,16.43
2022-11-13T22:21:14.153Z,15.73
2022-11-13T22:24:01.327Z,18.00
2022-11-13T22:26:47.793Z,19.67
2022-11-13T22:29:33.010Z,22.00
2022-11-13T22:32:18.257Z,20.70
2022-11-13T22:35:03.688Z,20.10
2022-11-13T22:37:49.040Z,20.50
2022-11-13T22:40:34.303Z,20.70
2022-11-13T22:43:19.787Z,20.13
2022-11-13T22:46:12.252Z,20.33
2022-11-13T22:49:01.568Z,19.80
2022-11-13T22:51:46.735Z,19.67
2022-11-13T22:54:32.110Z,20.33
2022-11-13T22:57:17.285Z,19.70
2022-11-13T23:00:04.855Z,19.80
2022-11-13T23:02:50.411Z,18.10
2022-11-13T23:05:36.275Z,18.00
2022-11-13T23:08:21.517Z,20.60
2022-11-13T23:11:39.791Z,19.63
2022-11-13T23:14:25.637Z,18.60
2022-11-13T23:17:11.068Z,20.67
2022-11-13T23:19:56.338Z,19.80
2022-11-13T23:22:41.654Z,21.83
2022-11-13T23:25:26.903Z,21.17
2022-11-13T23:28:12.185Z,20.80
2022-11-13T23:30:57.502Z,20.57
2022-11-13T23:33:42.788Z,20.67
2022-11-13T23:36:30.460Z,20.80
2022-11-13T23:39:16.185Z,22.33
2022-11-13T23:42:01.952Z,20.63
2022-11-13T23:44:47.846Z,21.00
2022-11-13T23:47:33.180Z,22.37
2022-11-13T23:50:18.679Z,21.47
2022-11-13T23:53:03.902Z,20.30
2022-11-13T23:55:49.275Z,21.20
2022-11-13T23:58:35.013Z,20.97
